Skip Navigation Links
NOAA logo - Click to go to the NOAA homepage
NOAA's National Weather Service
Alaska Aviation Weather Unit
  NWS logo - Click to go to the NWS homepage
Left Navbar Graphic     21 AKDT = 05 GMT

   
NOAA is celebrating 200 years of science, service, and stewardship. Visit the NOAA 200th celebration Web site to learn more.
USA.gov is the U.S. Government's official Web portal to all Federal, state and local government Web resources and services.
Facebook
NWS on Facebook

Important Change Regarding the AAWU Web Presence

 

Over the last several months, the AAWU has been working to navigate its webpages to a nationally supported server. Security, as well as other needs, have necessitated the change.  In the process, we have made an effort to enhance the functionality of our website, as well as some of our products. As of June 27, 2017, aawu.arh.noaa.gov will be discontinued. The new AAWU web address is weather.gov/aawu. It is now live and will run in-parallel with the old site until it is discontinued. Please send any feedback or questions regarding the new webpages to nws.ar.aawu.webauthors@noaa.gov.  Thank you for your patience during this time of transition.
AAWU Home :: Display TAF Add Bookmark
METAR PASO 242353Z AUTO 02007KT 10SM CLR 15/06 A3013 RMK AO2 SLP203
     T01500061 10156 20122 58007 TSNO $=

METAR PASO 250053Z AUTO 02005KT 10SM CLR 17/07 A3011 RMK AO2 SLP197
    T01670072 TSNO $=

METAR PASO 250153Z AUTO 04007KT 10SM CLR 16/08 A3011 RMK AO2 SLP197
     T01560078 TSNO $=

METAR PASO 250253Z AUTO 03006KT 10SM CLR 17/08 A3009 RMK AO2 SLP190
     T01720083 58013 TSNO $=

METAR PASO 250353Z AUTO 03003KT 10SM CLR 18/09 A3008 RMK AO2 SLP187
     T01780094 TSNO $=

METAR PASO 250453Z AUTO 00000KT 10SM CLR 17/09 A3007 RMK AO2 SLP183
     T01670089 TSNO $=


NOAA's National Weather Service
Alaska Aviation Weather Unit
6930 Sand Lake Road
Anchorage, AK 99502-1845
Disclaimer
Credits
Glossary
Privacy Policy
About Us
Career Opportunities
Contact AAWU Internet Services Site last modified: April, 17th 2012